Time;durP1;ratioP1;P1;durP2;ratioP2;P2;SDS_P1;SDS_P2;PMS_P1;PMS_P2;Temp;Humidity;BMP_temperature;BMP_pressure;BME280_temperature;BME280_humidity;BME280_pressure;Samples;Min_cycle;Max_cycle;Signal;HPM_P1;HPM_P2
2022/03/22 00:01:53;;;;;;;8.20;6.23;;;9.70;64.80;;;;;;5049899;28;20232;-84
2022/03/22 00:04:20;;;;;;;7.30;6.20;;;9.60;65.60;;;;;;5048952;28;20197;-85
2022/03/22 00:07:17;;;;;;;7.63;6.40;;;9.70;65.00;;;;;;5050058;28;20208;-85
2022/03/22 00:09:44;;;;;;;6.73;6.10;;;9.60;64.50;;;;;;5049993;28;20188;-83
2022/03/22 00:12:11;;;;;;;6.90;6.20;;;9.60;65.40;;;;;;5049658;28;20240;-85
2022/03/22 00:14:37;;;;;;;6.67;6.00;;;9.50;65.10;;;;;;5049633;28;20208;-85
2022/03/22 00:17:06;;;;;;;6.63;5.93;;;9.50;64.90;;;;;;5049539;28;20274;-85
2022/03/22 00:19:38;;;;;;;8.17;6.27;;;9.50;65.70;;;;;;5049335;28;20228;-84
2022/03/22 00:22:11;;;;;;;7.23;6.17;;;9.50;65.40;;;;;;5066218;28;20224;-84
2022/03/22 00:24:39;;;;;;;9.50;6.70;;;9.40;65.80;;;;;;5049816;28;20273;-84
2022/03/22 00:27:05;;;;;;;7.23;6.37;;;9.40;66.00;;;;;;5049171;28;20212;-84
2022/03/22 00:29:35;;;;;;;8.07;6.03;;;9.30;66.60;;;;;;5049136;28;20212;-80
2022/03/22 00:32:02;;;;;;;8.03;6.53;;;9.30;66.90;;;;;;5048791;28;20212;-80
2022/03/22 00:34:29;;;;;;;7.00;6.30;;;9.30;66.70;;;;;;5035850;28;20311;-82
2022/03/22 00:36:58;;;;;;;7.67;6.67;;;9.30;67.70;;;;;;5047569;28;20208;-82
2022/03/22 00:39:25;;;;;;;7.73;6.63;;;9.30;67.80;;;;;;5049217;28;20219;-82
2022/03/22 00:42:01;;;;;;;7.63;6.40;;;9.20;67.00;;;;;;5048744;28;20698;-83
2022/03/22 00:44:29;;;;;;;8.00;6.10;;;9.20;66.70;;;;;;5049025;28;20192;-83
2022/03/22 00:46:56;;;;;;;7.03;5.83;;;9.10;66.30;;;;;;5048573;28;20216;-81
2022/03/22 00:49:23;;;;;;;9.23;7.00;;;9.10;66.80;;;;;;5048711;28;20215;-81
2022/03/22 00:52:36;;;;;;;8.23;6.47;;;9.10;67.80;;;;;;5048806;28;20216;-82
2022/03/22 00:55:04;;;;;;;7.00;5.60;;;9.00;69.50;;;;;;5028663;28;20284;-81
2022/03/22 00:57:32;;;;;;;6.83;6.13;;;9.00;68.50;;;;;;5029394;28;20209;-81
2022/03/22 01:00:09;;;;;;;7.03;6.40;;;9.00;68.90;;;;;;5029834;28;20208;-78
2022/03/22 01:02:38;;;;;;;7.03;6.33;;;9.00;68.90;;;;;;5031381;28;20226;-78
2022/03/22 01:05:08;;;;;;;7.13;6.27;;;9.00;68.50;;;;;;5049635;28;20246;-79
2022/03/22 01:07:35;;;;;;;7.53;6.13;;;8.90;68.90;;;;;;5051135;28;20262;-78
2022/03/22 01:10:02;;;;;;;6.63;5.93;;;8.90;69.00;;;;;;5048516;28;20207;-78
2022/03/22 01:12:29;;;;;;;7.40;5.77;;;8.90;69.10;;;;;;5049887;28;20247;-78
2022/03/22 01:14:57;;;;;;;9.07;6.53;;;8.90;68.30;;;;;;5049213;28;20740;-81
2022/03/22 01:17:24;;;;;;;8.17;6.77;;;8.90;67.20;;;;;;5053857;28;20262;-80
2022/03/22 01:19:52;;;;;;;6.90;5.97;;;9.00;67.30;;;;;;5056760;28;20239;-81
2022/03/22 01:22:19;;;;;;;7.03;6.23;;;9.00;66.80;;;;;;5063803;28;20269;-77
2022/03/22 01:24:52;;;;;;;6.97;6.13;;;9.00;66.90;;;;;;5048490;28;20257;-80
2022/03/22 01:27:20;;;;;;;7.37;6.23;;;8.90;66.70;;;;;;5048367;28;20188;-81
2022/03/22 01:29:47;;;;;;;6.40;5.70;;;8.90;67.20;;;;;;5048280;28;20208;-82
2022/03/22 01:32:15;;;;;;;7.53;5.50;;;8.90;67.40;;;;;;5048050;28;20773;-82
2022/03/22 01:34:42;;;;;;;9.57;6.57;;;8.90;65.50;;;;;;5048230;28;20262;-82
2022/03/22 01:37:09;;;;;;;6.20;5.60;;;8.80;65.70;;;;;;5048085;28;20204;-82
2022/03/22 01:39:36;;;;;;;6.77;6.10;;;8.80;66.10;;;;;;5047850;28;20666;-82
2022/03/22 01:42:03;;;;;;;7.20;5.80;;;8.80;66.10;;;;;;5047648;28;20842;-83
2022/03/22 01:44:30;;;;;;;6.73;6.03;;;8.70;65.20;;;;;;5050941;28;20262;-82
2022/03/22 01:47:00;;;;;;;7.93;6.17;;;8.70;64.90;;;;;;5048681;28;20204;-83
2022/03/22 01:49:35;;;;;;;8.43;6.37;;;8.70;65.40;;;;;;5047973;28;20197;-82
2022/03/22 01:52:15;;;;;;;6.87;5.97;;;8.70;65.40;;;;;;5046438;28;20337;-83
2022/03/22 01:54:42;;;;;;;7.03;6.00;;;8.70;65.80;;;;;;5028088;28;20737;-83
2022/03/22 01:57:12;;;;;;;9.03;6.00;;;8.70;66.00;;;;;;5034535;28;20204;-83
2022/03/22 01:59:38;;;;;;;6.73;5.77;;;8.60;65.70;;;;;;5048105;28;20228;-83
2022/03/22 02:07:42;;;;;;;8.87;6.00;;;8.50;67.20;;;;;;5050213;28;20188;-81
2022/03/22 02:10:11;;;;;;;8.07;6.37;;;8.50;66.60;;;;;;5051763;28;20200;-81
2022/03/22 02:12:38;;;;;;;8.03;6.00;;;8.50;66.30;;;;;;5049740;28;20223;-80
2022/03/22 02:15:07;;;;;;;7.23;6.10;;;8.40;67.20;;;;;;5036082;28;20201;-81
2022/03/22 02:17:34;;;;;;;7.13;6.43;;;8.30;67.90;;;;;;5029840;28;20256;-80
2022/03/22 02:20:03;;;;;;;8.30;6.37;;;8.30;68.40;;;;;;5041268;28;20436;-80
2022/03/22 02:22:41;;;;;;;8.43;5.97;;;8.30;68.50;;;;;;5049192;28;20289;-80
2022/03/22 02:25:15;;;;;;;8.23;6.17;;;8.20;68.70;;;;;;5047573;28;20204;-80
2022/03/22 02:27:52;;;;;;;9.03;6.57;;;8.20;69.10;;;;;;5049881;28;20589;-81
2022/03/22 02:30:25;;;;;;;7.47;6.17;;;8.10;69.70;;;;;;5050746;28;20635;-79
2022/03/22 02:32:53;;;;;;;8.23;6.13;;;8.00;69.70;;;;;;5050668;28;20212;-82
2022/03/22 02:38:10;;;;;;;7.93;6.47;;;8.00;69.40;;;;;;5050736;28;20211;-81
2022/03/22 02:40:42;;;;;;;8.80;6.70;;;8.00;68.70;;;;;;5051456;28;20199;-83
2022/03/22 02:43:09;;;;;;;8.40;6.47;;;8.00;69.00;;;;;;5051027;28;20227;-82
2022/03/22 02:45:36;;;;;;;7.53;6.30;;;7.90;69.40;;;;;;5051191;28;20204;-82
2022/03/22 02:48:03;;;;;;;8.10;6.70;;;7.90;70.10;;;;;;5051527;28;20266;-82
2022/03/22 02:50:29;;;;;;;8.53;6.33;;;7.90;70.00;;;;;;5051306;28;20663;-82
2022/03/22 02:52:57;;;;;;;9.23;6.67;;;7.90;70.00;;;;;;5051787;28;20204;-83
2022/03/22 02:55:23;;;;;;;9.20;6.90;;;7.90;69.40;;;;;;5051085;28;20240;-81
2022/03/22 02:57:51;;;;;;;8.00;6.30;;;7.90;69.20;;;;;;5052104;28;20201;-83
2022/03/22 03:00:18;;;;;;;8.97;7.03;;;7.90;68.80;;;;;;5051271;28;20212;-83
2022/03/22 03:02:48;;;;;;;7.57;6.83;;;7.80;68.90;;;;;;5050999;28;20688;-84
2022/03/22 03:05:15;;;;;;;9.07;6.17;;;7.80;69.20;;;;;;5051208;28;20273;-83
2022/03/22 03:07:41;;;;;;;9.07;6.80;;;7.80;68.90;;;;;;5051067;28;20265;-84
2022/03/22 03:10:09;;;;;;;9.23;6.57;;;7.80;68.70;;;;;;5051671;28;20227;-86
2022/03/22 03:12:36;;;;;;;9.07;6.83;;;7.80;68.20;;;;;;5051678;28;20698;-82
2022/03/22 03:15:08;;;;;;;13.03;6.63;;;7.70;68.20;;;;;;5050345;28;20236;-83
2022/03/22 03:17:35;;;;;;;7.80;6.30;;;7.70;68.40;;;;;;5070501;28;20290;-81
2022/03/22 03:20:02;;;;;;;7.23;6.20;;;7.70;68.60;;;;;;5069689;28;20616;-82
2022/03/22 03:22:29;;;;;;;9.07;6.30;;;7.70;68.50;;;;;;5062946;28;20220;-82
2022/03/22 03:24:55;;;;;;;7.10;6.40;;;7.70;68.80;;;;;;5049831;28;20208;-81
2022/03/22 03:27:22;;;;;;;6.33;5.73;;;7.70;69.50;;;;;;5050268;28;20263;-81
2022/03/22 03:29:50;;;;;;;7.53;6.47;;;7.60;69.20;;;;;;5050000;28;20242;-81
2022/03/22 03:32:18;;;;;;;8.67;6.60;;;7.60;70.00;;;;;;5049929;28;20673;-81
2022/03/22 03:34:45;;;;;;;7.03;6.30;;;7.60;70.30;;;;;;5050160;28;20258;-82
2022/03/22 03:37:12;;;;;;;7.00;6.23;;;7.60;70.00;;;;;;5049904;28;20380;-81
2022/03/22 03:39:38;;;;;;;9.63;6.60;;;7.60;69.70;;;;;;5049811;28;20208;-81
2022/03/22 03:42:17;;;;;;;8.20;6.87;;;7.60;70.60;;;;;;5049939;28;20208;-81
2022/03/22 03:47:30;;;;;;;10.63;6.70;;;7.50;71.30;;;;;;5049480;28;20250;-81
2022/03/22 03:49:58;;;;;;;7.43;6.03;;;7.50;71.30;;;;;;5049566;28;20208;-81
2022/03/22 03:52:48;;;;;;;7.23;6.23;;;7.40;70.80;;;;;;5048920;28;20287;-82
2022/03/22 03:55:14;;;;;;;6.63;5.93;;;7.40;71.00;;;;;;5049525;28;20192;-82
2022/03/22 03:57:41;;;;;;;8.87;6.83;;;7.40;71.40;;;;;;5049725;28;20208;-79
2022/03/22 04:00:09;;;;;;;7.83;6.90;;;7.30;71.70;;;;;;5049128;28;20203;-80
2022/03/22 04:02:37;;;;;;;8.37;6.57;;;7.30;71.40;;;;;;5048079;28;20262;-82
2022/03/22 04:05:04;;;;;;;8.10;7.20;;;7.30;70.10;;;;;;5029646;28;20323;-82
2022/03/22 04:07:30;;;;;;;8.20;6.57;;;7.30;69.80;;;;;;5030105;28;20205;-83
2022/03/22 04:09:57;;;;;;;7.03;6.27;;;7.20;70.00;;;;;;5029328;28;20216;-81
2022/03/22 04:12:31;;;;;;;6.97;6.03;;;7.20;70.50;;;;;;5038580;28;20216;-77
2022/03/22 04:14:57;;;;;;;8.27;6.30;;;7.20;71.30;;;;;;5048926;28;20216;-79
2022/03/22 04:17:30;;;;;;;7.10;6.03;;;7.20;71.20;;;;;;5048886;28;20205;-80
2022/03/22 04:19:58;;;;;;;8.73;6.73;;;7.20;70.70;;;;;;5044971;28;20235;-79
2022/03/22 04:22:53;;;;;;;7.50;6.40;;;7.20;71.10;;;;;;5039858;28;20286;-80
2022/03/22 04:25:20;;;;;;;9.67;6.73;;;7.20;70.90;;;;;;5026711;28;20193;-80
2022/03/22 04:34:27;;;;;;;7.73;6.23;;;7.10;70.90;;;;;;5045402;28;20710;-78
2022/03/22 04:36:56;;;;;;;8.60;6.97;;;7.10;71.10;;;;;;5029444;28;20209;-78
2022/03/22 04:39:23;;;;;;;8.03;6.57;;;7.00;71.80;;;;;;5039276;28;20208;-77
2022/03/22 04:41:51;;;;;;;8.47;6.43;;;7.00;72.00;;;;;;5046206;28;20580;-80
2022/03/22 04:44:18;;;;;;;8.27;6.63;;;7.00;71.50;;;;;;5045880;28;20247;-79
2022/03/22 04:46:45;;;;;;;8.13;6.57;;;6.90;71.00;;;;;;5046163;28;20219;-80
2022/03/22 04:49:12;;;;;;;8.17;6.87;;;6.90;71.10;;;;;;5045920;28;20208;-79
2022/03/22 04:57:09;;;;;;;8.70;6.20;;;6.80;71.60;;;;;;5024516;28;20287;-79
2022/03/22 04:59:36;;;;;;;7.33;6.63;;;6.70;71.60;;;;;;5032097;28;20261;-78
2022/03/22 05:02:03;;;;;;;6.87;5.77;;;6.70;71.60;;;;;;5044425;28;20583;-79
2022/03/22 05:04:29;;;;;;;7.13;6.27;;;6.70;71.80;;;;;;5025473;28;20797;-78
2022/03/22 05:06:56;;;;;;;7.83;7.00;;;6.70;72.10;;;;;;5029152;28;20250;-78
2022/03/22 05:09:23;;;;;;;8.17;7.10;;;6.60;72.00;;;;;;5047280;28;20699;-79
2022/03/22 05:11:51;;;;;;;9.00;6.80;;;6.60;72.00;;;;;;5047222;28;20287;-79
2022/03/22 05:14:18;;;;;;;8.97;7.07;;;6.60;71.60;;;;;;5045329;28;20220;-78
2022/03/22 05:16:45;;;;;;;9.50;7.07;;;6.60;72.10;;;;;;5046802;28;20254;-80
2022/03/22 05:19:11;;;;;;;7.80;6.43;;;6.60;72.40;;;;;;5046744;28;20254;-78
2022/03/22 05:21:38;;;;;;;8.97;7.10;;;6.50;72.40;;;;;;5047317;28;20262;-78
2022/03/22 05:24:05;;;;;;;7.33;6.57;;;6.50;72.10;;;;;;5046871;28;20228;-78
2022/03/22 05:26:32;;;;;;;7.23;6.50;;;6.50;71.80;;;;;;5046725;28;20287;-78
2022/03/22 05:29:00;;;;;;;10.23;6.90;;;6.50;72.00;;;;;;5046868;28;20554;-79
2022/03/22 05:31:26;;;;;;;8.63;6.77;;;6.50;72.20;;;;;;5047200;28;20215;-78
2022/03/22 05:33:53;;;;;;;7.53;6.30;;;6.50;72.90;;;;;;5046908;28;20208;-78
2022/03/22 05:36:20;;;;;;;9.40;6.17;;;6.50;72.30;;;;;;5044180;28;20204;-79
2022/03/22 05:38:46;;;;;;;8.13;6.53;;;6.50;72.30;;;;;;5047164;28;20262;-78
2022/03/22 05:41:13;;;;;;;8.50;6.53;;;6.50;72.00;;;;;;5046770;28;20811;-79
2022/03/22 05:43:41;;;;;;;8.83;6.80;;;6.40;72.00;;;;;;5046881;28;20236;-79
2022/03/22 05:46:10;;;;;;;8.60;6.57;;;6.40;72.60;;;;;;5051983;28;20212;-79
2022/03/22 05:48:38;;;;;;;7.57;6.33;;;6.40;73.00;;;;;;5046794;28;20279;-78
2022/03/22 05:51:07;;;;;;;8.33;7.10;;;6.40;72.70;;;;;;5046685;28;20288;-78
2022/03/22 05:53:34;;;;;;;9.57;6.60;;;6.40;73.30;;;;;;5046210;28;20216;-79
2022/03/22 05:56:01;;;;;;;8.53;7.20;;;6.50;72.80;;;;;;5043753;28;20659;-78
2022/03/22 05:58:28;;;;;;;7.07;6.33;;;6.50;72.90;;;;;;5047977;28;20237;-78
2022/03/22 06:00:55;;;;;;;8.83;6.93;;;6.40;72.80;;;;;;5047725;28;20254;-78
2022/03/22 06:03:23;;;;;;;8.63;6.70;;;6.30;72.60;;;;;;5050501;28;20202;-79
2022/03/22 06:05:50;;;;;;;8.57;6.53;;;6.40;73.10;;;;;;5050465;28;20204;-78
2022/03/22 06:08:18;;;;;;;8.90;6.70;;;6.40;73.50;;;;;;5051156;28;20208;-77
2022/03/22 06:10:45;;;;;;;8.37;6.70;;;6.40;73.40;;;;;;5050856;28;20247;-78
2022/03/22 06:13:11;;;;;;;11.87;7.17;;;6.40;73.40;;;;;;5052020;28;20440;-79
2022/03/22 06:15:38;;;;;;;9.03;7.00;;;6.50;73.70;;;;;;5049904;28;20663;-79
2022/03/22 06:18:09;;;;;;;8.47;6.83;;;6.50;72.80;;;;;;5049777;28;20208;-79
2022/03/22 06:20:42;;;;;;;9.87;6.93;;;6.50;72.60;;;;;;5050610;28;20184;-79
2022/03/22 06:23:12;;;;;;;9.40;6.93;;;6.50;71.60;;;;;;5050016;28;20224;-78
2022/03/22 06:25:40;;;;;;;9.63;6.70;;;6.50;72.50;;;;;;5050242;28;20196;-79
2022/03/22 06:28:09;;;;;;;8.97;6.97;;;6.50;73.10;;;;;;5053410;28;20204;-79
2022/03/22 06:30:36;;;;;;;8.43;7.00;;;6.60;73.70;;;;;;5049829;28;20232;-79
2022/03/22 06:33:13;;;;;;;8.57;7.13;;;6.60;72.70;;;;;;5050137;28;20203;-77
2022/03/22 06:35:42;;;;;;;8.10;6.90;;;6.60;73.00;;;;;;5050255;28;20220;-78
2022/03/22 06:38:08;;;;;;;9.90;6.37;;;6.70;73.40;;;;;;5050250;28;20208;-80
2022/03/22 06:40:37;;;;;;;8.47;6.63;;;6.70;72.90;;;;;;5050624;28;20270;-80
2022/03/22 06:43:08;;;;;;;14.87;7.03;;;6.80;72.90;;;;;;5050788;28;20310;-79
2022/03/22 06:45:35;;;;;;;6.60;6.00;;;6.80;72.50;;;;;;5050722;28;20238;-79
2022/03/22 06:48:01;;;;;;;8.67;6.33;;;7.00;72.90;;;;;;5050695;28;20204;-79
2022/03/22 06:50:28;;;;;;;7.57;6.33;;;6.90;72.20;;;;;;5050788;28;20204;-78
2022/03/22 06:52:56;;;;;;;9.10;6.83;;;7.00;72.00;;;;;;5040420;28;20259;-78
2022/03/22 06:55:23;;;;;;;8.77;6.67;;;7.00;72.20;;;;;;5048416;28;20204;-78
2022/03/22 06:57:52;;;;;;;7.37;6.27;;;7.10;71.60;;;;;;5049631;28;20200;-78
2022/03/22 07:00:20;;;;;;;9.27;7.00;;;7.10;71.00;;;;;;5043661;28;20206;-79
2022/03/22 07:02:48;;;;;;;9.00;7.00;;;7.10;71.10;;;;;;5048308;28;20690;-80
2022/03/22 07:05:15;;;;;;;7.77;6.40;;;7.20;71.70;;;;;;5029172;28;20225;-79
2022/03/22 07:07:42;;;;;;;9.93;6.67;;;7.20;70.40;;;;;;5029421;28;20204;-79
2022/03/22 07:10:12;;;;;;;9.13;7.00;;;7.30;70.50;;;;;;5031087;28;20201;-79
2022/03/22 07:12:51;;;;;;;8.80;6.27;;;7.30;70.30;;;;;;5026941;28;20193;-79
2022/03/22 07:15:18;;;;;;;8.67;7.20;;;7.40;70.50;;;;;;5026380;28;20231;-79
2022/03/22 07:17:45;;;;;;;8.73;6.20;;;7.40;70.10;;;;;;5029306;28;20204;-79
2022/03/22 07:20:13;;;;;;;8.83;6.73;;;7.50;69.90;;;;;;5029165;28;20237;-79
2022/03/22 07:22:41;;;;;;;10.13;6.80;;;7.60;70.40;;;;;;5026724;28;20278;-78
2022/03/22 07:25:08;;;;;;;8.50;6.73;;;7.60;70.60;;;;;;5027049;28;20229;-79
2022/03/22 07:27:36;;;;;;;7.20;6.50;;;7.70;70.30;;;;;;5029255;28;20197;-79
2022/03/22 07:30:04;;;;;;;7.03;6.17;;;7.80;70.00;;;;;;5029087;28;20205;-79
2022/03/22 07:32:30;;;;;;;7.90;6.87;;;7.80;70.20;;;;;;5028846;28;20201;-79
2022/03/22 07:34:59;;;;;;;8.40;6.47;;;7.90;69.50;;;;;;5028677;28;20339;-79
2022/03/22 07:37:26;;;;;;;9.27;6.60;;;8.00;69.00;;;;;;5029595;28;20255;-78
2022/03/22 07:39:53;;;;;;;7.70;6.60;;;8.10;68.90;;;;;;5028786;28;20255;-79
2022/03/22 07:42:24;;;;;;;8.50;6.77;;;8.10;68.90;;;;;;5028623;28;20196;-79
2022/03/22 07:44:52;;;;;;;7.73;6.60;;;8.20;68.60;;;;;;5028489;28;20582;-79
2022/03/22 07:47:18;;;;;;;7.47;6.47;;;8.30;68.40;;;;;;5028499;28;20212;-79
2022/03/22 07:55:16;;;;;;;7.87;6.20;;;8.60;66.60;;;;;;5028122;28;20316;-76
2022/03/22 07:57:43;;;;;;;10.53;6.67;;;8.60;66.90;;;;;;5028311;28;20267;-76
2022/03/22 08:00:13;;;;;;;9.17;6.73;;;8.70;66.40;;;;;;5027824;28;20618;-79
2022/03/22 08:02:50;;;;;;;7.83;6.60;;;8.80;66.80;;;;;;5028624;28;20698;-79
2022/03/22 08:05:17;;;;;;;10.13;6.53;;;8.90;67.00;;;;;;5030149;28;20297;-78
2022/03/22 08:07:44;;;;;;;7.67;6.60;;;8.90;67.30;;;;;;5028687;28;20205;-78
2022/03/22 08:10:10;;;;;;;8.80;6.37;;;9.00;68.30;;;;;;5028364;28;20219;-78
2022/03/22 08:12:37;;;;;;;7.83;6.73;;;9.00;67.90;;;;;;5028445;28;20209;-78
2022/03/22 08:15:05;;;;;;;6.97;6.37;;;9.10;67.70;;;;;;5028031;28;20233;-79
2022/03/22 08:17:33;;;;;;;7.50;6.70;;;9.10;67.80;;;;;;5028267;28;20208;-79
2022/03/22 08:19:59;;;;;;;6.50;5.77;;;9.20;67.20;;;;;;5027115;28;20240;-78
2022/03/22 08:22:26;;;;;;;7.23;6.40;;;9.30;66.40;;;;;;5022610;28;20237;-78
2022/03/22 08:24:53;;;;;;;6.87;6.20;;;9.30;67.10;;;;;;5019989;28;20585;-78
2022/03/22 08:27:20;;;;;;;8.30;6.87;;;9.40;67.30;;;;;;5027971;28;20205;-79
2022/03/22 08:29:46;;;;;;;7.07;6.37;;;9.40;67.40;;;;;;5027542;28;20659;-78
2022/03/22 08:32:14;;;;;;;8.27;6.70;;;9.50;67.30;;;;;;5027780;28;20233;-78
2022/03/22 08:34:42;;;;;;;8.03;6.67;;;9.60;67.20;;;;;;5029548;28;20754;-78
2022/03/22 08:37:12;;;;;;;10.93;7.80;;;9.70;67.40;;;;;;5027882;28;20201;-78
2022/03/22 08:39:39;;;;;;;7.57;6.77;;;9.70;67.10;;;;;;5028080;28;20193;-78
2022/03/22 08:42:06;;;;;;;7.00;6.37;;;9.80;67.70;;;;;;5027858;28;20250;-78
2022/03/22 08:44:32;;;;;;;8.53;6.77;;;9.80;66.20;;;;;;5027482;28;20232;-79
2022/03/22 08:47:01;;;;;;;7.93;7.07;;;9.90;67.10;;;;;;5028248;28;20197;-78
2022/03/22 08:49:27;;;;;;;7.70;6.67;;;10.00;67.30;;;;;;5029365;28;20236;-79
2022/03/22 08:51:55;;;;;;;9.33;6.47;;;10.00;66.70;;;;;;5027162;28;20741;-79
2022/03/22 08:54:22;;;;;;;6.47;5.87;;;10.10;66.30;;;;;;5028223;28;20209;-78
2022/03/22 08:56:49;;;;;;;7.03;6.20;;;10.20;66.30;;;;;;5027678;28;20193;-78
2022/03/22 08:59:15;;;;;;;6.63;5.97;;;10.20;66.20;;;;;;5027469;28;20200;-78
2022/03/22 09:01:44;;;;;;;8.00;6.60;;;10.30;68.10;;;;;;5028987;28;20245;-79
2022/03/22 09:06:56;;;;;;;7.57;6.27;;;10.40;64.40;;;;;;5026113;28;20199;-77
2022/03/22 09:09:24;;;;;;;7.03;5.83;;;10.40;65.30;;;;;;5026907;28;20231;-78
2022/03/22 09:11:50;;;;;;;6.90;6.30;;;10.50;65.60;;;;;;5027462;28;20679;-78
2022/03/22 09:14:17;;;;;;;8.23;6.00;;;10.70;66.90;;;;;;5027066;28;20287;-78
2022/03/22 09:16:44;;;;;;;7.70;6.13;;;10.80;66.00;;;;;;5028038;28;20259;-78
2022/03/22 09:19:11;;;;;;;7.57;6.40;;;10.90;64.60;;;;;;5026964;28;20600;-78
2022/03/22 09:21:37;;;;;;;6.53;5.93;;;11.00;61.30;;;;;;5026711;28;20707;-78
2022/03/22 09:24:07;;;;;;;7.63;5.93;;;11.00;61.80;;;;;;5027229;28;20342;-79
2022/03/22 09:26:34;;;;;;;7.80;6.30;;;11.00;62.50;;;;;;5026216;28;20733;-79
2022/03/22 09:29:01;;;;;;;8.10;6.57;;;11.00;62.40;;;;;;5007624;28;20634;-78
2022/03/22 09:31:28;;;;;;;7.77;6.37;;;11.00;63.30;;;;;;5031351;28;20204;-78
2022/03/22 09:33:56;;;;;;;7.97;6.90;;;11.10;64.10;;;;;;5027426;28;20205;-79
2022/03/22 09:36:23;;;;;;;7.70;6.43;;;11.20;63.60;;;;;;5030243;28;20220;-78
2022/03/22 09:38:50;;;;;;;6.00;5.50;;;11.20;65.60;;;;;;5031264;28;20263;-79
2022/03/22 09:41:18;;;;;;;7.03;6.33;;;11.30;64.00;;;;;;5031265;28;20289;-79
2022/03/22 09:43:49;;;;;;;6.97;6.23;;;11.50;62.20;;;;;;5033724;28;20196;-79
2022/03/22 09:46:18;;;;;;;6.67;5.97;;;11.60;64.10;;;;;;5030876;28;20456;-79
2022/03/22 09:48:46;;;;;;;6.80;6.03;;;11.60;62.60;;;;;;5031203;28;20575;-79
2022/03/22 09:53:58;;;;;;;6.50;5.80;;;11.70;59.10;;;;;;5031064;28;20290;-79
2022/03/22 09:56:30;;;;;;;9.10;5.57;;;11.70;59.10;;;;;;5030826;28;20204;-79
2022/03/22 09:58:58;;;;;;;6.33;5.57;;;11.80;59.20;;;;;;5032868;28;20201;-79
2022/03/22 10:01:24;;;;;;;6.47;5.87;;;11.90;58.70;;;;;;5030274;28;20254;-78
2022/03/22 10:03:59;;;;;;;7.27;6.00;;;11.90;59.90;;;;;;5030677;28;20602;-79
2022/03/22 10:06:26;;;;;;;7.90;6.33;;;12.10;61.40;;;;;;5030613;28;20239;-79
2022/03/22 10:08:53;;;;;;;8.17;5.80;;;12.10;60.20;;;;;;5030925;28;20259;-79
2022/03/22 10:11:20;;;;;;;7.97;6.50;;;12.20;60.60;;;;;;5030600;28;20726;-79
2022/03/22 10:13:57;;;;;;;20.10;8.53;;;12.40;60.40;;;;;;5032102;28;20231;-79
2022/03/22 10:16:24;;;;;;;9.53;6.83;;;12.40;60.30;;;;;;5029273;28;20727;-79
2022/03/22 10:18:50;;;;;;;8.17;6.73;;;12.60;60.50;;;;;;5029768;28;20229;-80
2022/03/22 10:21:17;;;;;;;9.57;7.13;;;12.60;61.00;;;;;;5030170;28;20232;-79
2022/03/22 10:23:51;;;;;;;8.90;6.67;;;12.80;61.00;;;;;;5030750;28;20204;-79
2022/03/22 10:26:18;;;;;;;8.27;6.50;;;13.10;60.20;;;;;;5031169;28;20237;-79
2022/03/22 10:28:52;;;;;;;9.00;6.37;;;13.10;60.20;;;;;;5030665;28;20608;-80
2022/03/22 10:31:33;;;;;;;10.83;7.00;;;13.10;59.30;;;;;;5030170;28;20201;-79
2022/03/22 10:34:00;;;;;;;6.73;6.10;;;13.20;59.30;;;;;;5030791;28;20196;-78
2022/03/22 10:36:27;;;;;;;10.80;6.23;;;13.30;60.00;;;;;;5030680;28;20236;-78
2022/03/22 10:38:56;;;;;;;8.27;5.80;;;13.30;59.20;;;;;;5030857;28;20208;-79
2022/03/22 10:41:30;;;;;;;9.77;6.27;;;13.40;59.20;;;;;;5045420;28;20398;-79
2022/03/22 10:44:08;;;;;;;7.30;6.07;;;13.50;57.70;;;;;;5050903;28;20222;-80
2022/03/22 10:46:38;;;;;;;5.47;4.97;;;13.70;56.50;;;;;;5050125;28;20301;-79
2022/03/22 10:49:08;;;;;;;8.87;5.63;;;13.70;57.10;;;;;;5050370;28;20200;-78
2022/03/22 10:51:43;;;;;;;6.67;5.80;;;13.90;56.20;;;;;;5050777;28;20243;-79
2022/03/22 10:54:12;;;;;;;6.97;6.27;;;14.00;55.70;;;;;;5033489;28;20228;-79
2022/03/22 10:56:44;;;;;;;8.37;6.10;;;14.10;55.30;;;;;;5048532;28;20585;-79
2022/03/22 10:59:12;;;;;;;8.53;5.90;;;14.30;55.10;;;;;;5029300;28;20193;-79
2022/03/22 11:01:42;;;;;;;6.40;5.80;;;14.50;55.50;;;;;;5029705;28;20238;-79
2022/03/22 11:04:10;;;;;;;6.53;5.90;;;14.50;55.10;;;;;;5029738;28;20284;-79
2022/03/22 11:06:38;;;;;;;6.90;6.10;;;14.50;54.60;;;;;;5029189;28;20722;-79
2022/03/22 11:09:06;;;;;;;10.53;6.57;;;14.50;54.30;;;;;;5029228;28;20718;-79
2022/03/22 11:11:33;;;;;;;6.87;6.00;;;14.60;54.20;;;;;;5027121;28;20258;-79
2022/03/22 11:14:00;;;;;;;7.27;5.73;;;14.60;54.60;;;;;;5029301;28;20200;-80
2022/03/22 11:16:29;;;;;;;6.70;6.00;;;14.70;54.40;;;;;;5029619;28;20208;-79
2022/03/22 11:18:59;;;;;;;9.90;6.23;;;14.80;53.90;;;;;;5029299;28;20224;-80
2022/03/22 11:21:26;;;;;;;6.10;5.50;;;14.90;53.90;;;;;;5028207;28;20899;-80
2022/03/22 11:24:04;;;;;;;7.50;5.67;;;15.00;52.80;;;;;;5031427;28;20209;-79
2022/03/22 11:26:31;;;;;;;8.13;6.20;;;15.20;53.50;;;;;;5029074;28;20220;-80
2022/03/22 11:28:58;;;;;;;6.77;5.93;;;15.20;53.50;;;;;;5028800;28;20213;-79
2022/03/22 11:31:27;;;;;;;6.77;5.67;;;15.40;53.80;;;;;;5028086;28;20209;-79
2022/03/22 11:34:09;;;;;;;6.07;5.50;;;15.40;54.40;;;;;;5026699;28;20295;-79
2022/03/22 11:36:43;;;;;;;9.50;5.60;;;15.50;54.10;;;;;;5028576;28;20255;-79
2022/03/22 11:39:10;;;;;;;6.73;6.10;;;15.60;53.80;;;;;;5028913;28;20207;-79
2022/03/22 11:44:34;;;;;;;5.90;5.23;;;15.70;52.30;;;;;;5027413;28;20203;-78
2022/03/22 11:47:07;;;;;;;6.23;5.67;;;15.90;53.40;;;;;;5028781;28;20302;-79
2022/03/22 11:49:49;;;;;;;10.73;6.53;;;16.00;53.20;;;;;;5026204;28;20603;-78
2022/03/22 11:52:19;;;;;;;9.70;5.93;;;16.20;52.20;;;;;;5029080;28;20205;-78
2022/03/22 11:55:00;;;;;;;6.20;5.60;;;16.40;52.50;;;;;;5028561;28;20205;-78
2022/03/22 11:57:28;;;;;;;6.20;5.70;;;16.40;52.20;;;;;;5028167;28;20209;-78
2022/03/22 11:59:55;;;;;;;5.93;5.27;;;16.50;52.10;;;;;;5027223;28;20251;-78
2022/03/22 12:02:30;;;;;;;5.53;4.93;;;16.60;51.70;;;;;;5028152;28;20200;-79
2022/03/22 12:04:59;;;;;;;7.47;5.70;;;16.70;50.90;;;;;;5031356;28;20201;-79
2022/03/22 12:07:31;;;;;;;6.43;5.67;;;16.80;51.80;;;;;;5028122;28;20201;-78
2022/03/22 12:10:08;;;;;;;6.30;5.70;;;16.70;50.80;;;;;;5028440;28;20193;-78
2022/03/22 12:12:37;;;;;;;6.43;5.63;;;16.90;51.70;;;;;;5020831;28;20193;-79
2022/03/22 12:15:06;;;;;;;6.13;5.60;;;17.10;50.80;;;;;;5027969;28;20200;-78
2022/03/22 12:17:32;;;;;;;6.30;5.70;;;17.40;50.50;;;;;;5027973;28;20231;-79
2022/03/22 12:20:00;;;;;;;5.60;5.10;;;17.30;50.10;;;;;;5030986;28;20287;-78
2022/03/22 12:22:30;;;;;;;7.17;5.20;;;17.30;49.90;;;;;;5027787;28;20777;-78
2022/03/22 12:24:59;;;;;;;6.27;5.27;;;17.30;49.10;;;;;;5028344;28;20189;-78
2022/03/22 12:27:26;;;;;;;6.30;5.70;;;17.40;50.70;;;;;;5027846;28;20244;-79
2022/03/22 12:29:55;;;;;;;12.90;5.17;;;17.40;50.30;;;;;;5024989;28;20292;-78
2022/03/22 12:32:25;;;;;;;5.87;5.27;;;17.50;49.60;;;;;;5029932;28;20232;-78
2022/03/22 12:34:53;;;;;;;6.23;5.63;;;17.70;50.10;;;;;;5025561;28;20197;-78
2022/03/22 12:37:20;;;;;;;7.07;5.23;;;17.60;47.60;;;;;;5027841;28;20295;-78
2022/03/22 12:39:49;;;;;;;6.10;4.60;;;17.70;46.40;;;;;;5029471;28;20212;-78
2022/03/22 12:42:17;;;;;;;8.03;5.20;;;17.60;45.90;;;;;;5028105;28;20213;-78
2022/03/22 12:44:44;;;;;;;6.57;4.73;;;17.70;47.30;;;;;;5027746;28;20211;-79
2022/03/22 12:47:11;;;;;;;5.43;4.80;;;17.90;47.00;;;;;;5029250;28;20236;-78
2022/03/22 12:49:40;;;;;;;5.97;5.33;;;18.10;47.60;;;;;;5027572;28;20201;-78
2022/03/22 12:52:07;;;;;;;7.30;5.80;;;18.20;47.50;;;;;;5026966;28;20585;-78
2022/03/22 12:54:36;;;;;;;5.37;4.87;;;18.40;47.50;;;;;;5027295;28;20204;-78
2022/03/22 12:57:08;;;;;;;5.87;5.27;;;18.50;47.20;;;;;;5027029;28;20578;-78
2022/03/22 12:59:35;;;;;;;5.33;4.83;;;18.60;46.90;;;;;;5024854;28;20247;-78
2022/03/22 13:02:06;;;;;;;6.53;5.00;;;18.60;46.30;;;;;;5027577;28;20263;-78
2022/03/22 13:04:37;;;;;;;7.30;5.40;;;18.80;47.10;;;;;;5025357;28;20189;-79
2022/03/22 13:07:06;;;;;;;5.33;4.83;;;18.80;46.40;;;;;;5025774;28;20232;-78
2022/03/22 13:12:20;;;;;;;5.27;4.77;;;18.90;47.50;;;;;;5025677;28;20678;-78
2022/03/22 13:15:04;;;;;;;5.80;5.30;;;19.00;46.40;;;;;;5025761;28;20205;-78
2022/03/22 13:17:32;;;;;;;5.60;4.43;;;19.20;47.00;;;;;;5025817;28;20197;-78
2022/03/22 13:19:59;;;;;;;6.17;4.97;;;19.30;47.00;;;;;;5025818;28;20240;-78
2022/03/22 13:22:28;;;;;;;6.50;5.30;;;19.30;44.40;;;;;;5025849;28;20594;-78
2022/03/22 13:25:09;;;;;;;5.88;5.03;;;19.30;44.00;;;;;;5025189;28;20286;-78
2022/03/22 13:27:38;;;;;;;7.43;4.87;;;19.30;44.60;;;;;;5005306;28;20252;-80
2022/03/22 13:30:17;;;;;;;6.25;5.55;;;19.30;44.30;;;;;;5032656;28;20208;-78
2022/03/22 13:32:49;;;;;;;5.00;4.60;;;19.40;43.90;;;;;;5045158;28;20257;-78
2022/03/22 13:35:19;;;;;;;4.78;4.38;;;19.50;43.90;;;;;;5045354;28;20242;-78
2022/03/22 13:37:49;;;;;;;5.50;4.57;;;19.60;44.30;;;;;;5045769;28;20216;-78
2022/03/22 13:40:16;;;;;;;4.97;4.57;;;19.60;44.10;;;;;;5045188;28;20208;-77
2022/03/22 13:43:04;;;;;;;7.47;4.60;;;19.70;43.30;;;;;;5025711;28;20220;-78